createdAt,value
2023-09-23T00:01:27.499Z,13.50
2023-09-23T00:05:33.244Z,13.50
2023-09-23T00:09:37.587Z,13.60
2023-09-23T00:13:41.884Z,13.60
2023-09-23T00:17:47.853Z,13.60
2023-09-23T00:21:50.885Z,13.60
2023-09-23T00:25:53.835Z,13.60
2023-09-23T00:29:59.651Z,13.50
2023-09-23T00:34:03.761Z,13.40
2023-09-23T00:38:07.957Z,13.40
2023-09-23T00:42:13.347Z,13.40
2023-09-23T00:46:22.780Z,13.30
2023-09-23T00:50:26.062Z,13.30
2023-09-23T00:54:29.000Z,13.30
2023-09-23T00:58:31.922Z,13.30
2023-09-23T01:02:38.929Z,13.30
2023-09-23T01:06:41.962Z,13.30
2023-09-23T01:10:45.053Z,13.20
2023-09-23T01:14:48.922Z,13.10
2023-09-23T01:18:54.574Z,13.10
2023-09-23T01:22:59.397Z,13.10
2023-09-23T01:27:04.950Z,13.10
2023-09-23T01:31:08.706Z,13.00
2023-09-23T01:35:12.293Z,13.00
2023-09-23T01:39:16.527Z,13.00
2023-09-23T01:43:19.995Z,13.00
2023-09-23T01:47:23.094Z,12.90
2023-09-23T01:51:26.124Z,13.00
2023-09-23T01:55:30.631Z,12.90
2023-09-23T01:59:33.486Z,12.90
2023-09-23T02:03:36.589Z,12.90
2023-09-23T02:07:40.809Z,12.90
2023-09-23T02:11:45.108Z,12.90
2023-09-23T02:15:48.984Z,12.90
2023-09-23T02:19:53.188Z,12.90
2023-09-23T02:23:57.863Z,12.90
2023-09-23T02:28:02.082Z,12.90
2023-09-23T02:32:07.911Z,12.90
2023-09-23T02:36:15.172Z,12.90
2023-09-23T02:40:19.379Z,12.90
2023-09-23T02:44:25.905Z,12.90
2023-09-23T02:48:29.537Z,12.90
2023-09-23T02:52:32.443Z,12.90
2023-09-23T02:56:36.137Z,12.80
2023-09-23T03:00:42.138Z,12.80
2023-09-23T03:04:45.158Z,12.70
2023-09-23T03:08:54.932Z,12.70
2023-09-23T03:13:03.574Z,12.70
2023-09-23T03:17:08.619Z,12.70
2023-09-23T03:21:12.066Z,12.70
2023-09-23T03:25:17.071Z,12.60
2023-09-23T03:29:20.097Z,12.60
2023-09-23T03:33:25.132Z,12.50
2023-09-23T03:37:28.042Z,12.50
2023-09-23T03:41:31.490Z,12.50
2023-09-23T03:45:35.339Z,12.50
2023-09-23T03:49:39.481Z,12.50
2023-09-23T03:53:45.092Z,12.40
2023-09-23T03:57:48.096Z,12.40
2023-09-23T04:01:52.382Z,12.40
2023-09-23T04:05:58.943Z,12.30
2023-09-23T04:10:03.038Z,12.30
2023-09-23T04:14:06.366Z,12.30
2023-09-23T04:18:10.354Z,12.20
2023-09-23T04:22:14.578Z,12.10
2023-09-23T04:26:17.488Z,12.10
2023-09-23T04:30:20.397Z,12.00
2023-09-23T04:34:25.187Z,11.90
2023-09-23T04:38:29.362Z,11.90
2023-09-23T04:42:32.171Z,12.00
2023-09-23T04:46:35.082Z,11.90
2023-09-23T04:50:40.797Z,12.00
2023-09-23T04:54:45.669Z,12.10
2023-09-23T04:58:48.669Z,12.10
2023-09-23T05:02:52.350Z,12.20
2023-09-23T05:06:55.523Z,12.20
2023-09-23T05:10:59.693Z,12.20
2023-09-23T05:15:02.891Z,12.20
2023-09-23T05:19:06.575Z,12.30
2023-09-23T05:23:09.542Z,12.30
2023-09-23T05:27:13.748Z,12.40
2023-09-23T05:31:16.652Z,12.40
2023-09-23T05:35:19.687Z,12.40
2023-09-23T05:39:22.676Z,12.50
2023-09-23T05:43:26.868Z,12.50
2023-09-23T05:47:29.830Z,12.50
2023-09-23T05:51:33.962Z,12.60
2023-09-23T05:55:36.868Z,12.60
2023-09-23T05:59:41.240Z,12.60
2023-09-23T06:03:44.232Z,12.60
2023-09-23T06:07:47.404Z,12.60
2023-09-23T06:11:50.444Z,12.70
2023-09-23T06:15:54.661Z,12.70
2023-09-23T06:19:58.513Z,12.70
2023-09-23T06:24:01.480Z,12.80
2023-09-23T06:28:04.618Z,12.80
2023-09-23T06:32:08.806Z,12.80
2023-09-23T06:36:11.771Z,12.90
2023-09-23T06:40:15.744Z,12.90
2023-09-23T06:44:18.994Z,13.00
2023-09-23T06:48:23.400Z,13.10
2023-09-23T06:52:26.278Z,13.20
2023-09-23T06:56:29.361Z,13.20
2023-09-23T07:00:32.945Z,13.30
2023-09-23T07:04:37.973Z,13.40
2023-09-23T07:08:40.883Z,13.40
2023-09-23T07:12:43.733Z,13.50
2023-09-23T07:16:46.629Z,13.50
2023-09-23T07:20:50.891Z,13.60
2023-09-23T07:24:53.719Z,13.70
2023-09-23T07:28:57.254Z,13.90
2023-09-23T07:33:00.835Z,14.10
2023-09-23T07:37:07.875Z,14.10
2023-09-23T07:41:11.061Z,14.10
2023-09-23T07:45:14.127Z,14.10
2023-09-23T07:49:18.061Z,14.00
2023-09-23T07:53:22.884Z,14.10
2023-09-23T07:57:27.170Z,14.10
2023-09-23T08:01:30.308Z,14.20
2023-09-23T08:05:33.583Z,14.20
2023-09-23T08:09:38.209Z,14.30
2023-09-23T08:13:41.118Z,14.40
2023-09-23T08:17:44.205Z,14.40
2023-09-23T08:21:48.334Z,14.50
2023-09-23T08:25:52.678Z,14.50
2023-09-23T08:29:55.628Z,14.50
2023-09-23T08:33:59.753Z,14.50
2023-09-23T08:38:02.625Z,14.50
2023-09-23T08:42:07.427Z,14.40
2023-09-23T08:46:11.539Z,14.40
2023-09-23T08:50:15.350Z,14.50
2023-09-23T08:54:23.110Z,14.50
2023-09-23T08:58:27.388Z,14.50
2023-09-23T09:02:30.606Z,14.50
2023-09-23T09:06:33.719Z,14.60
2023-09-23T09:10:36.778Z,14.70
2023-09-23T09:14:41.320Z,14.90
2023-09-23T09:18:44.924Z,15.00
2023-09-23T09:22:50.186Z,15.30
2023-09-23T09:26:53.265Z,15.40
2023-09-23T09:31:00.918Z,15.40
2023-09-23T09:35:07.536Z,15.30
2023-09-23T09:39:15.338Z,15.20
2023-09-23T09:43:19.125Z,15.20
2023-09-23T09:47:24.109Z,15.30
2023-09-23T09:51:27.343Z,15.30
2023-09-23T09:55:30.410Z,15.40
2023-09-23T09:59:34.497Z,15.30
2023-09-23T10:03:39.803Z,15.40
2023-09-23T10:07:55.642Z,15.50
2023-09-23T10:12:00.659Z,15.60
2023-09-23T10:16:07.052Z,15.60
2023-09-23T10:20:19.821Z,15.90
2023-09-23T10:24:24.231Z,16.10
2023-09-23T10:28:29.425Z,16.10
2023-09-23T10:32:32.431Z,16.10
2023-09-23T10:36:37.593Z,16.10
2023-09-23T10:40:40.795Z,16.50
2023-09-23T10:44:44.171Z,16.60
2023-09-23T10:48:47.344Z,16.40
2023-09-23T10:52:52.580Z,16.30
2023-09-23T10:56:55.435Z,16.20
2023-09-23T11:00:58.490Z,16.30
2023-09-23T11:05:01.703Z,16.20
2023-09-23T11:09:07.259Z,16.30
2023-09-23T11:13:11.958Z,16.80
2023-09-23T11:17:22.402Z,17.00
2023-09-23T11:21:25.414Z,17.00
2023-09-23T11:25:30.913Z,17.10
2023-09-23T11:29:33.790Z,16.90
2023-09-23T11:33:36.718Z,16.80
2023-09-23T11:37:39.591Z,16.60
2023-09-23T11:41:43.750Z,16.40
2023-09-23T11:45:49.809Z,16.40
2023-09-23T11:49:53.219Z,16.40
2023-09-23T11:53:56.113Z,16.50
2023-09-23T11:58:00.910Z,16.40
2023-09-23T12:02:06.373Z,16.40
2023-09-23T12:06:09.583Z,16.60
2023-09-23T12:10:14.819Z,16.80
2023-09-23T12:14:20.101Z,16.90
2023-09-23T12:18:23.357Z,17.00
2023-09-23T12:22:26.467Z,17.10
2023-09-23T12:26:29.630Z,17.10
2023-09-23T12:30:33.979Z,17.00
2023-09-23T12:34:36.896Z,17.10
2023-09-23T12:38:39.889Z,17.10
2023-09-23T12:42:44.091Z,17.20
2023-09-23T12:46:49.030Z,17.50
2023-09-23T12:50:52.328Z,17.60
2023-09-23T12:54:55.424Z,17.90
2023-09-23T12:59:00.242Z,18.00
2023-09-23T13:03:09.608Z,18.20
2023-09-23T13:07:13.452Z,18.00
2023-09-23T13:11:16.570Z,18.00
2023-09-23T13:15:19.496Z,17.90
2023-09-23T13:19:23.773Z,17.90
2023-09-23T13:23:26.813Z,18.00
2023-09-23T13:27:29.803Z,18.00
2023-09-23T13:31:32.763Z,18.00
2023-09-23T13:35:37.622Z,17.80
2023-09-23T13:39:40.506Z,17.70
2023-09-23T13:43:45.370Z,17.80
2023-09-23T13:47:48.692Z,17.70
2023-09-23T13:51:53.069Z,17.70
2023-09-23T13:55:56.244Z,17.50
2023-09-23T13:59:59.081Z,17.50
2023-09-23T14:04:01.999Z,17.40
2023-09-23T14:08:10.068Z,17.40
2023-09-23T14:12:13.203Z,17.40
2023-09-23T14:16:16.169Z,17.50
2023-09-23T14:20:19.069Z,17.50
2023-09-23T14:24:23.248Z,17.50
2023-09-23T14:28:26.125Z,17.60
2023-09-23T14:32:29.019Z,17.50
2023-09-23T14:36:32.708Z,17.60
2023-09-23T14:40:37.002Z,17.50
2023-09-23T14:44:39.953Z,17.40
2023-09-23T14:48:42.857Z,17.40
2023-09-23T14:52:48.176Z,17.40
2023-09-23T14:56:52.352Z,17.40
2023-09-23T15:00:55.303Z,17.40
2023-09-23T15:04:58.234Z,17.50
2023-09-23T15:09:04.396Z,17.50
2023-09-23T15:13:12.717Z,17.60
2023-09-23T15:17:15.679Z,17.60
2023-09-23T15:21:18.676Z,17.50
2023-09-23T15:25:21.662Z,17.40
2023-09-23T15:29:25.947Z,17.30
2023-09-23T15:33:29.148Z,17.20
2023-09-23T15:37:32.122Z,17.20
2023-09-23T15:41:37.100Z,17.20
2023-09-23T15:45:43.676Z,17.10
2023-09-23T15:49:46.681Z,17.00
2023-09-23T15:53:49.894Z,17.00
2023-09-23T15:57:52.923Z,16.90
2023-09-23T16:01:57.208Z,16.90
2023-09-23T16:06:01.080Z,16.90
2023-09-23T16:10:08.673Z,16.80
2023-09-23T16:14:11.662Z,16.80
2023-09-23T16:18:16.765Z,16.80
2023-09-23T16:22:21.702Z,16.70
2023-09-23T16:26:29.727Z,16.60
2023-09-23T16:30:34.866Z,16.60
2023-09-23T16:34:40.541Z,16.50
2023-09-23T16:38:43.508Z,16.50
2023-09-23T16:42:47.675Z,16.40
2023-09-23T16:46:50.914Z,16.30
2023-09-23T16:50:56.315Z,16.10
2023-09-23T16:54:59.171Z,16.00
2023-09-23T16:59:02.213Z,15.70
2023-09-23T17:03:05.564Z,15.60
2023-09-23T17:07:09.974Z,15.50
2023-09-23T17:11:13.345Z,15.30
2023-09-23T17:15:16.713Z,15.20
2023-09-23T17:19:19.621Z,15.10
2023-09-23T17:23:24.658Z,15.10
2023-09-23T17:27:27.588Z,14.90
2023-09-23T17:31:30.482Z,14.90
2023-09-23T17:35:33.489Z,14.70
2023-09-23T17:39:37.926Z,14.70
2023-09-23T17:43:43.762Z,14.70
2023-09-23T17:47:46.689Z,14.70
2023-09-23T17:51:51.427Z,14.60
2023-09-23T17:55:55.941Z,14.60
2023-09-23T18:00:02.277Z,14.70
2023-09-23T18:04:11.211Z,14.70
2023-09-23T18:08:16.453Z,14.60
2023-09-23T18:12:20.864Z,14.60
2023-09-23T18:16:23.816Z,14.60
2023-09-23T18:20:27.881Z,14.50
2023-09-23T18:24:32.741Z,14.50
2023-09-23T18:28:38.131Z,14.50
2023-09-23T18:32:43.187Z,14.40
2023-09-23T18:36:48.115Z,14.40
2023-09-23T18:40:52.967Z,14.40
2023-09-23T18:45:01.136Z,14.40
2023-09-23T18:49:04.336Z,14.40
2023-09-23T18:53:07.304Z,14.30
2023-09-23T18:57:10.236Z,14.30
2023-09-23T19:01:14.866Z,14.20
2023-09-23T19:05:18.139Z,14.20
2023-09-23T19:09:24.997Z,14.20
2023-09-23T19:13:27.884Z,14.20
2023-09-23T19:17:32.666Z,14.20
2023-09-23T19:21:35.826Z,14.20
2023-09-23T19:25:41.986Z,14.20
2023-09-23T19:29:44.895Z,14.10
2023-09-23T19:33:50.394Z,14.10
2023-09-23T19:37:53.259Z,14.10
2023-09-23T19:41:56.117Z,14.10
2023-09-23T19:45:58.963Z,14.10
2023-09-23T19:50:05.272Z,14.00
2023-09-23T19:54:10.986Z,14.00
2023-09-23T19:58:18.035Z,14.00
2023-09-23T20:02:21.038Z,14.00
2023-09-23T20:06:25.282Z,13.90
2023-09-23T20:10:29.722Z,14.00
2023-09-23T20:14:34.399Z,14.00
2023-09-23T20:18:37.408Z,14.00
2023-09-23T20:22:42.162Z,14.00
2023-09-23T20:26:45.073Z,14.00
2023-09-23T20:30:49.624Z,14.00
2023-09-23T20:34:52.893Z,14.00
2023-09-23T20:38:59.336Z,13.90
2023-09-23T20:43:03.180Z,13.90
2023-09-23T20:47:06.030Z,13.90
2023-09-23T20:51:11.985Z,14.00
2023-09-23T20:55:16.383Z,13.90
2023-09-23T20:59:19.250Z,14.00
2023-09-23T21:03:22.330Z,14.00
2023-09-23T21:07:25.448Z,14.00
2023-09-23T21:11:30.391Z,14.00
2023-09-23T21:15:33.269Z,14.00
2023-09-23T21:19:38.126Z,14.00
2023-09-23T21:23:41.147Z,14.00
2023-09-23T21:27:45.437Z,14.10
2023-09-23T21:31:48.965Z,14.00
2023-09-23T21:35:51.916Z,14.00
2023-09-23T21:39:55.402Z,14.00
2023-09-23T21:43:59.586Z,14.00
2023-09-23T21:48:03.399Z,14.00
2023-09-23T21:52:06.381Z,14.00
2023-09-23T21:56:09.277Z,14.00
2023-09-23T22:00:27.786Z,14.00
2023-09-23T22:04:31.120Z,14.00
2023-09-23T22:08:35.562Z,14.00
2023-09-23T22:12:39.178Z,13.90
2023-09-23T22:16:43.382Z,13.90
2023-09-23T22:20:46.361Z,13.80
2023-09-23T22:24:49.261Z,13.70
2023-09-23T22:28:52.117Z,13.60
2023-09-23T22:32:57.827Z,13.50
2023-09-23T22:37:00.799Z,13.50
2023-09-23T22:41:04.447Z,13.40
2023-09-23T22:45:15.057Z,13.40
2023-09-23T22:49:27.103Z,13.40
2023-09-23T22:53:29.994Z,13.30
2023-09-23T22:57:33.127Z,13.20
2023-09-23T23:01:36.791Z,13.20
2023-09-23T23:05:41.809Z,13.20
2023-09-23T23:09:45.261Z,13.10
2023-09-23T23:13:48.565Z,13.10
2023-09-23T23:17:52.570Z,13.10
2023-09-23T23:21:56.833Z,13.20
2023-09-23T23:26:00.921Z,13.20
2023-09-23T23:30:04.621Z,13.10
2023-09-23T23:34:07.522Z,13.10
2023-09-23T23:38:15.448Z,13.10
2023-09-23T23:42:18.554Z,13.10
2023-09-23T23:46:23.229Z,13.10
2023-09-23T23:50:26.312Z,13.00
2023-09-23T23:54:31.637Z,13.00
2023-09-23T23:58:34.855Z,12.90
